Time;durP1;ratioP1;P1;durP2;ratioP2;P2;SDS_P1;SDS_P2;PMS_P1;PMS_P2;Temp;Humidity;BMP_temperature;BMP_pressure;BME280_temperature;BME280_humidity;BME280_pressure;Samples;Min_cycle;Max_cycle;Signal;HPM_P1;HPM_P2
2022/11/13 00:01:21;;;;;;;21.33;9.80;;;5.20;99.90;;;;;;5055320;28;20040;-80
2022/11/13 00:03:48;;;;;;;17.17;9.65;;;5.20;99.90;;;;;;5088220;28;20084;-80
2022/11/13 00:06:16;;;;;;;18.70;9.65;;;5.10;99.90;;;;;;5071805;28;20083;-80
2022/11/13 00:08:44;;;;;;;14.30;8.57;;;4.90;99.90;;;;;;5054842;28;20051;-80
2022/11/13 00:11:17;;;;;;;14.60;8.73;;;4.90;99.90;;;;;;5054757;28;20405;-80
2022/11/13 00:13:44;;;;;;;16.63;8.65;;;4.90;99.90;;;;;;5087976;28;20047;-80
2022/11/13 00:16:16;;;;;;;16.58;8.68;;;4.90;99.90;;;;;;5054621;28;20067;-80
2022/11/13 00:18:43;;;;;;;17.40;8.50;;;5.10;99.90;;;;;;5070864;28;20052;-80
2022/11/13 00:21:19;;;;;;;17.30;8.65;;;4.60;99.90;;;;;;5104386;28;20512;-80
2022/11/13 00:23:46;;;;;;;18.02;8.38;;;5.40;99.90;;;;;;5104657;28;20088;-80
2022/11/13 00:26:17;;;;;;;15.98;8.45;;;6.20;99.90;;;;;;5087490;28;20048;-80
2022/11/13 00:28:44;;;;;;;16.48;8.98;;;4.90;99.90;;;;;;5104137;28;20044;-80
2022/11/13 00:31:13;;;;;;;19.73;8.73;;;4.90;99.90;;;;;;5087380;28;20124;-80
2022/11/13 00:33:40;;;;;;;16.73;8.80;;;4.90;99.90;;;;;;5104028;28;20115;-80
2022/11/13 00:36:12;;;;;;;16.38;8.95;;;5.00;99.90;;;;;;5104155;28;20484;-80
2022/11/13 00:38:39;;;;;;;18.80;8.55;;;5.00;99.90;;;;;;5103927;28;20098;-80
2022/11/13 00:41:12;;;;;;;16.05;8.73;;;5.50;99.90;;;;;;5103403;28;20076;-80
2022/11/13 00:43:39;;;;;;;19.08;8.77;;;4.50;99.90;;;;;;5103080;28;20087;-80
2022/11/13 00:46:06;;;;;;;17.90;8.90;;;5.00;99.90;;;;;;5104018;28;20049;-80
2022/11/13 00:48:34;;;;;;;16.10;8.40;;;5.00;99.90;;;;;;5090434;28;20624;-80
2022/11/13 00:51:01;;;;;;;16.88;7.90;;;5.10;99.90;;;;;;5068266;28;20518;-80
2022/11/13 00:53:29;;;;;;;16.38;8.55;;;5.00;99.90;;;;;;5103819;28;20507;-79
2022/11/13 00:55:56;;;;;;;15.38;8.25;;;6.10;99.90;;;;;;5103700;28;20044;-80
2022/11/13 00:58:23;;;;;;;20.45;9.05;;;5.10;99.90;;;;;;5087386;28;20041;-80
2022/11/13 01:00:50;;;;;;;15.65;8.45;;;5.30;99.90;;;;;;5086929;28;20040;-80
2022/11/13 01:03:17;;;;;;;18.65;9.68;;;5.20;99.90;;;;;;5070732;28;20052;-80
2022/11/13 01:05:45;;;;;;;15.60;8.55;;;5.20;99.90;;;;;;5086777;28;20123;-80
2022/11/13 01:08:13;;;;;;;16.13;7.93;;;5.80;99.90;;;;;;5120401;28;20052;-80
2022/11/13 01:10:44;;;;;;;14.63;8.45;;;5.20;99.90;;;;;;5086992;28;20041;-80
2022/11/13 01:13:11;;;;;;;19.45;8.77;;;5.20;99.90;;;;;;5120547;28;20033;-80
2022/11/13 01:15:39;;;;;;;16.38;8.63;;;6.40;99.90;;;;;;5086690;28;20048;-79
2022/11/13 01:18:06;;;;;;;14.30;8.48;;;5.30;99.90;;;;;;5103217;28;20032;-80
2022/11/13 01:20:34;;;;;;;16.58;10.05;;;5.30;99.90;;;;;;5103515;28;20094;-80
2022/11/13 01:23:01;;;;;;;15.55;8.43;;;5.50;99.90;;;;;;5069920;28;20045;-80
2022/11/13 01:25:28;;;;;;;17.75;9.68;;;5.70;99.90;;;;;;5070127;28;20404;-80
2022/11/13 01:27:55;;;;;;;15.57;9.02;;;6.30;99.90;;;;;;5103095;28;20127;-80
2022/11/13 01:30:22;;;;;;;16.83;9.18;;;5.40;99.90;;;;;;5053706;28;20044;-80
2022/11/13 01:32:49;;;;;;;17.50;8.65;;;5.40;99.90;;;;;;5103128;28;20039;-80
2022/11/13 01:35:16;;;;;;;13.52;7.60;;;5.50;99.90;;;;;;5103108;28;20056;-80
2022/11/13 01:37:43;;;;;;;16.13;8.98;;;5.50;99.90;;;;;;5053448;28;20036;-80
2022/11/13 01:40:11;;;;;;;18.52;8.55;;;5.40;99.90;;;;;;5086255;28;20049;-80
2022/11/13 01:42:41;;;;;;;16.20;8.82;;;5.50;99.90;;;;;;5086287;28;20056;-80
2022/11/13 01:45:45;;;;;;;15.18;9.00;;;5.50;99.90;;;;;;5086226;28;20047;-80
2022/11/13 01:48:14;;;;;;;15.93;8.45;;;5.50;99.90;;;;;;5069712;28;20055;-80
2022/11/13 01:50:41;;;;;;;17.50;9.02;;;5.50;99.90;;;;;;5070125;28;20493;-80
2022/11/13 01:53:08;;;;;;;16.70;8.48;;;5.60;99.90;;;;;;5086602;28;20124;-80
2022/11/13 01:55:35;;;;;;;17.20;8.48;;;5.50;99.90;;;;;;5109774;28;20033;-80
2022/11/13 01:58:04;;;;;;;16.33;8.38;;;6.00;99.90;;;;;;5093167;28;20029;-80
2022/11/13 02:00:31;;;;;;;16.48;8.93;;;5.50;99.90;;;;;;5109944;28;20059;-80
2022/11/13 02:02:58;;;;;;;16.40;8.70;;;6.00;99.90;;;;;;5059710;28;20036;-80
2022/11/13 02:05:25;;;;;;;16.30;8.98;;;5.50;99.90;;;;;;5092905;28;20045;-80
2022/11/13 02:07:52;;;;;;;16.75;8.95;;;5.50;99.90;;;;;;5076165;28;20041;-80
2022/11/13 02:10:19;;;;;;;13.75;7.72;;;;;;;;;;5109718;28;20040;-80
2022/11/13 02:12:50;;;;;;;15.85;8.75;;;5.50;99.90;;;;;;5076552;28;20044;-79
2022/11/13 02:15:22;;;;;;;20.17;8.57;;;5.50;99.90;;;;;;5126576;28;20045;-80
2022/11/13 02:18:00;;;;;;;16.73;8.00;;;5.50;99.90;;;;;;5126384;28;20037;-80
2022/11/13 02:20:52;;;;;;;15.45;8.52;;;6.00;99.90;;;;;;5109499;28;20094;-80
2022/11/13 02:24:13;;;;;;;19.00;7.72;;;5.50;99.90;;;;;;5109506;28;20048;-80
2022/11/13 02:26:48;;;;;;;14.00;8.20;;;5.60;99.90;;;;;;5015893;28;20487;-80
2022/11/13 02:29:15;;;;;;;17.92;8.57;;;5.50;99.90;;;;;;5075386;28;20052;-80
2022/11/13 02:31:41;;;;;;;16.08;8.25;;;5.60;99.90;;;;;;5109571;28;20037;-80
2022/11/13 02:34:08;;;;;;;18.02;7.93;;;5.30;99.90;;;;;;5109282;28;20075;-80
2022/11/13 02:36:35;;;;;;;15.27;7.90;;;5.70;99.90;;;;;;5092666;28;20037;-80
2022/11/13 02:39:07;;;;;;;13.98;7.50;;;5.40;99.90;;;;;;5092569;28;20509;-80
2022/11/13 02:41:33;;;;;;;14.20;7.35;;;5.50;99.90;;;;;;5076216;28;20036;-80
2022/11/13 02:44:00;;;;;;;16.75;7.85;;;5.40;99.90;;;;;;5075929;28;20040;-80
2022/11/13 02:46:27;;;;;;;16.38;7.32;;;5.70;99.90;;;;;;5092801;28;20106;-80
2022/11/13 02:48:54;;;;;;;18.95;7.65;;;5.30;99.90;;;;;;5092458;28;20040;-80
2022/11/13 02:51:20;;;;;;;13.15;7.43;;;5.30;99.90;;;;;;5108995;28;20519;-80
2022/11/13 02:53:47;;;;;;;14.77;7.78;;;5.30;99.90;;;;;;5109228;28;20037;-80
2022/11/13 02:56:14;;;;;;;14.23;7.55;;;5.70;99.90;;;;;;5075690;28;20037;-79
2022/11/13 02:58:42;;;;;;;13.70;6.97;;;5.90;99.90;;;;;;5076093;28;20448;-80
2022/11/13 03:01:09;;;;;;;15.13;7.40;;;5.20;99.90;;;;;;5092653;28;20045;-80
2022/11/13 03:03:36;;;;;;;18.60;7.07;;;5.20;99.90;;;;;;5085422;28;20034;-80
2022/11/13 03:06:02;;;;;;;15.32;7.40;;;5.20;99.90;;;;;;5086323;28;20051;-80
2022/11/13 03:08:29;;;;;;;12.75;7.25;;;5.20;99.90;;;;;;5069340;28;20045;-80
2022/11/13 03:10:56;;;;;;;13.82;8.32;;;6.00;99.90;;;;;;5085976;28;20045;-79
2022/11/13 03:13:23;;;;;;;14.68;7.53;;;6.00;99.90;;;;;;5087803;28;20052;-80
2022/11/13 03:15:49;;;;;;;13.70;7.30;;;5.20;99.90;;;;;;5105583;28;20041;-80
2022/11/13 03:18:16;;;;;;;15.50;6.93;;;5.20;99.90;;;;;;5088717;28;20559;-80
2022/11/13 03:20:52;;;;;;;14.52;7.57;;;5.20;99.90;;;;;;5089222;28;20056;-79
2022/11/13 03:23:19;;;;;;;16.05;7.90;;;5.50;99.90;;;;;;5089313;28;20041;-80
2022/11/13 03:25:46;;;;;;;14.70;7.88;;;5.20;99.90;;;;;;5088883;28;20080;-79
2022/11/13 03:28:13;;;;;;;14.20;8.02;;;5.10;99.90;;;;;;5055644;28;20446;-79
2022/11/13 03:30:40;;;;;;;13.85;7.78;;;5.10;99.90;;;;;;5039385;28;20044;-79
2022/11/13 03:33:07;;;;;;;16.13;8.02;;;5.40;99.90;;;;;;5039574;28;20037;-80
2022/11/13 03:35:33;;;;;;;12.93;7.15;;;5.10;99.90;;;;;;5055601;28;20085;-80
2022/11/13 03:38:00;;;;;;;13.70;7.43;;;5.10;99.90;;;;;;5072367;28;20041;-80
2022/11/13 03:40:27;;;;;;;15.07;7.57;;;5.10;99.90;;;;;;5039004;28;20067;-80
2022/11/13 03:42:53;;;;;;;15.25;7.45;;;5.10;99.90;;;;;;5055648;28;20056;-80
2022/11/13 03:45:20;;;;;;;14.57;7.45;;;5.10;99.90;;;;;;5039111;28;20036;-80
2022/11/13 03:47:48;;;;;;;16.15;7.43;;;5.30;99.90;;;;;;5071990;28;20127;-80
2022/11/13 03:50:14;;;;;;;11.27;6.80;;;5.00;99.90;;;;;;5054896;28;20037;-80
2022/11/13 03:52:41;;;;;;;14.65;7.10;;;5.00;99.90;;;;;;5071723;28;20577;-80
2022/11/13 03:55:09;;;;;;;13.95;7.63;;;5.20;99.90;;;;;;5054910;28;20123;-80
2022/11/13 03:57:36;;;;;;;13.88;7.75;;;4.90;99.90;;;;;;5071794;28;20048;-79
2022/11/13 04:00:04;;;;;;;14.60;7.13;;;4.80;99.90;;;;;;5071625;28;20420;-79
2022/11/13 04:02:31;;;;;;;14.20;7.43;;;4.80;99.90;;;;;;5055103;28;20394;-80
2022/11/13 04:05:05;;;;;;;10.93;6.30;;;4.80;99.90;;;;;;5039102;28;20052;-79
2022/11/13 04:07:32;;;;;;;11.02;6.68;;;4.70;99.90;;;;;;5071603;28;20047;-80
2022/11/13 04:09:58;;;;;;;12.18;6.80;;;4.70;99.90;;;;;;5038771;28;20045;-80
2022/11/13 04:12:26;;;;;;;14.88;7.32;;;4.70;99.90;;;;;;5087805;28;20043;-80
2022/11/13 04:14:53;;;;;;;13.65;6.80;;;4.60;99.90;;;;;;5071425;28;20045;-80
2022/11/13 04:17:19;;;;;;;13.27;7.32;;;5.60;99.90;;;;;;5054952;28;20371;-80
2022/11/13 04:19:46;;;;;;;13.38;7.18;;;4.70;99.90;;;;;;5071232;28;20041;-80
2022/11/13 04:22:13;;;;;;;14.43;7.22;;;5.40;99.90;;;;;;5071550;28;20084;-80
2022/11/13 04:24:39;;;;;;;14.82;7.13;;;5.50;99.90;;;;;;5055066;28;20041;-80
2022/11/13 04:27:06;;;;;;;13.02;7.40;;;4.50;99.90;;;;;;5071169;28;20045;-80
2022/11/13 04:29:33;;;;;;;11.70;6.80;;;5.60;99.90;;;;;;5054362;28;20049;-80
2022/11/13 04:32:02;;;;;;;13.05;7.07;;;4.50;99.90;;;;;;5055730;28;20520;-80
2022/11/13 04:34:29;;;;;;;14.60;7.10;;;4.50;99.90;;;;;;5097004;28;20091;-80
2022/11/13 04:36:56;;;;;;;11.30;5.88;;;4.50;99.90;;;;;;5055031;28;20400;-80
2022/11/13 04:39:23;;;;;;;13.05;6.28;;;4.40;99.90;;;;;;5074202;28;20515;-80
2022/11/13 04:44:35;;;;;;;14.10;7.03;;;4.40;99.90;;;;;;5093322;28;20076;-80
2022/11/13 04:47:09;;;;;;;11.13;6.68;;;5.30;99.90;;;;;;5091987;28;20052;-80
2022/11/13 04:49:35;;;;;;;14.70;6.40;;;4.40;99.90;;;;;;5090594;28;20527;-80
2022/11/13 04:52:02;;;;;;;11.75;6.47;;;4.30;99.90;;;;;;5090810;28;20076;-80
2022/11/13 04:54:30;;;;;;;13.52;6.85;;;4.30;99.90;;;;;;5107389;28;20047;-80
2022/11/13 04:56:57;;;;;;;12.52;7.05;;;4.30;99.90;;;;;;5057659;28;20051;-80
2022/11/13 04:59:23;;;;;;;11.70;6.40;;;5.20;99.90;;;;;;5082944;28;20409;-80
2022/11/13 05:01:50;;;;;;;13.13;7.07;;;4.30;99.90;;;;;;5086848;28;20045;-80
2022/11/13 05:04:17;;;;;;;11.80;6.38;;;4.20;99.90;;;;;;5070647;28;20175;-81
2022/11/13 05:06:43;;;;;;;11.43;6.13;;;4.30;99.90;;;;;;5070395;28;20104;-80
2022/11/13 05:09:10;;;;;;;11.85;6.57;;;4.50;99.90;;;;;;5054298;28;20500;-80
2022/11/13 05:11:37;;;;;;;12.18;6.85;;;5.10;99.90;;;;;;5037356;28;20044;-80
2022/11/13 05:14:04;;;;;;;12.45;6.75;;;4.20;99.90;;;;;;5070023;28;20036;-80
2022/11/13 05:16:34;;;;;;;13.35;7.25;;;4.80;99.90;;;;;;5053972;28;20041;-80
2022/11/13 05:19:00;;;;;;;12.93;6.55;;;4.60;99.90;;;;;;5070048;28;20044;-80
2022/11/13 05:21:27;;;;;;;12.45;6.22;;;4.20;99.90;;;;;;5069807;28;20059;-80
2022/11/13 05:23:57;;;;;;;12.95;6.53;;;4.20;99.90;;;;;;5053549;28;20131;-80
2022/11/13 05:26:25;;;;;;;12.80;6.57;;;4.20;99.90;;;;;;5053870;28;20048;-80
2022/11/13 05:28:52;;;;;;;14.95;6.90;;;4.20;99.90;;;;;;5086313;28;20041;-80
2022/11/13 05:31:18;;;;;;;10.95;6.43;;;4.10;99.90;;;;;;5069951;28;20132;-80
2022/11/13 05:33:45;;;;;;;13.60;6.20;;;4.10;99.90;;;;;;5069713;28;20134;-80
2022/11/13 05:36:16;;;;;;;13.93;6.35;;;4.70;99.90;;;;;;5053874;28;20523;-80
2022/11/13 05:38:43;;;;;;;10.60;6.00;;;5.20;99.90;;;;;;5069752;28;20547;-80
2022/11/13 05:41:16;;;;;;;11.50;6.40;;;4.10;99.90;;;;;;5069742;28;20048;-80
2022/11/13 05:43:43;;;;;;;12.40;6.38;;;4.00;99.90;;;;;;5070035;28;20083;-80
2022/11/13 05:46:11;;;;;;;12.15;6.68;;;4.30;99.90;;;;;;5086334;28;20094;-80
2022/11/13 05:48:39;;;;;;;13.00;6.10;;;5.10;99.90;;;;;;5086257;28;20090;-80
2022/11/13 05:51:08;;;;;;;10.60;6.28;;;4.60;99.90;;;;;;5069704;28;20493;-80
2022/11/13 05:53:36;;;;;;;9.88;5.72;;;3.90;99.90;;;;;;5086120;28;20115;-80
2022/11/13 05:56:11;;;;;;;10.95;6.00;;;3.80;99.90;;;;;;5086236;28;20094;-80
2022/11/13 05:58:38;;;;;;;13.82;6.43;;;3.80;99.90;;;;;;5069660;28;20374;-80
2022/11/13 06:01:12;;;;;;;11.13;5.95;;;4.50;99.90;;;;;;5053414;28;20052;-80
2022/11/13 06:03:46;;;;;;;11.70;5.78;;;3.80;99.90;;;;;;5069719;28;20044;-80
2022/11/13 06:06:15;;;;;;;12.70;6.82;;;3.70;99.90;;;;;;5070846;28;20084;-80
2022/11/13 06:08:49;;;;;;;10.85;6.07;;;3.70;99.90;;;;;;5055097;28;20070;-80
2022/11/13 06:11:18;;;;;;;13.13;6.38;;;4.90;99.90;;;;;;5086132;28;20043;-80
2022/11/13 06:13:46;;;;;;;13.20;6.05;;;3.70;99.90;;;;;;5069750;28;20037;-80
2022/11/13 06:16:20;;;;;;;11.82;6.20;;;4.10;99.90;;;;;;5069799;28;20033;-80
2022/11/13 06:18:48;;;;;;;12.88;6.40;;;3.70;99.90;;;;;;5053624;28;20029;-80
2022/11/13 06:21:36;;;;;;;10.77;5.43;;;3.70;99.90;;;;;;5069352;28;20049;-80
2022/11/13 06:24:03;;;;;;;13.43;6.63;;;4.00;99.90;;;;;;5069392;28;20493;-80
2022/11/13 06:26:33;;;;;;;13.95;6.50;;;3.60;99.90;;;;;;5036885;28;20088;-81
2022/11/13 06:29:01;;;;;;;10.98;6.07;;;4.40;99.90;;;;;;5069553;28;20037;-80
2022/11/13 06:31:30;;;;;;;10.40;5.47;;;3.70;99.90;;;;;;5052983;28;20078;-80
2022/11/13 06:33:58;;;;;;;15.15;6.50;;;3.60;99.90;;;;;;5052299;28;20114;-80
2022/11/13 06:36:28;;;;;;;12.48;5.90;;;4.80;99.90;;;;;;5036405;28;20037;-80
2022/11/13 06:38:55;;;;;;;12.65;5.65;;;4.50;99.90;;;;;;5085656;28;20052;-80
2022/11/13 06:41:24;;;;;;;12.65;6.82;;;3.70;99.90;;;;;;5087269;28;20494;-80
2022/11/13 06:43:52;;;;;;;11.70;6.57;;;3.70;99.90;;;;;;5072621;28;20041;-80
2022/11/13 06:46:21;;;;;;;12.88;6.60;;;3.70;99.90;;;;;;5073046;28;20041;-80
2022/11/13 06:48:49;;;;;;;11.63;6.00;;;4.00;99.90;;;;;;5089635;28;20041;-80
2022/11/13 06:51:21;;;;;;;11.73;6.13;;;3.80;99.90;;;;;;5056317;28;20036;-80
2022/11/13 06:53:49;;;;;;;16.15;6.85;;;3.80;99.90;;;;;;5072940;28;20069;-80
2022/11/13 06:56:17;;;;;;;14.45;6.97;;;4.30;99.90;;;;;;5072730;28;20091;-80
2022/11/13 06:58:44;;;;;;;11.95;6.15;;;3.80;99.90;;;;;;5072430;28;20124;-80
2022/11/13 07:01:19;;;;;;;11.63;6.22;;;3.80;99.90;;;;;;5089274;28;20055;-80
2022/11/13 07:03:46;;;;;;;12.82;6.72;;;5.10;99.90;;;;;;5056305;28;20045;-80
2022/11/13 07:06:17;;;;;;;11.55;6.45;;;4.40;99.90;;;;;;5072541;28;20041;-80
2022/11/13 07:08:44;;;;;;;15.40;6.25;;;4.50;99.90;;;;;;5089355;28;20049;-80
2022/11/13 07:11:17;;;;;;;9.63;6.00;;;5.20;99.90;;;;;;5072471;28;20047;-80
2022/11/13 07:13:45;;;;;;;12.68;6.22;;;3.90;99.90;;;;;;5072463;28;20044;-80
2022/11/13 07:16:13;;;;;;;13.85;6.55;;;4.10;99.90;;;;;;5072475;28;20044;-80
2022/11/13 07:18:39;;;;;;;11.07;5.90;;;4.50;99.90;;;;;;5072855;28;20033;-81
2022/11/13 07:21:09;;;;;;;11.50;6.00;;;4.00;99.90;;;;;;5072254;28;20036;-80
2022/11/13 07:23:42;;;;;;;11.95;6.32;;;4.00;99.90;;;;;;5105373;28;20044;-80
2022/11/13 07:26:12;;;;;;;16.35;6.22;;;4.00;99.90;;;;;;5089019;28;20098;-80
2022/11/13 07:28:38;;;;;;;12.20;5.80;;;4.00;99.90;;;;;;5088900;28;20408;-80
2022/11/13 07:31:06;;;;;;;12.80;6.25;;;4.00;99.90;;;;;;5088583;28;20041;-80
2022/11/13 07:33:34;;;;;;;13.00;7.00;;;4.10;99.90;;;;;;5122181;28;20045;-80
2022/11/13 07:36:03;;;;;;;12.93;6.20;;;4.10;99.90;;;;;;5088290;28;20136;-80
2022/11/13 07:38:29;;;;;;;15.45;7.38;;;4.10;99.90;;;;;;5088561;28;20382;-80
2022/11/13 07:40:58;;;;;;;13.65;6.97;;;4.10;99.90;;;;;;5112941;28;20048;-79
2022/11/13 07:43:24;;;;;;;13.10;6.57;;;5.20;99.90;;;;;;5117485;28;20504;-80
2022/11/13 07:45:53;;;;;;;11.98;6.05;;;4.20;99.90;;;;;;5069957;28;20041;-80
2022/11/13 07:48:21;;;;;;;13.70;6.35;;;4.50;99.90;;;;;;5104831;28;20511;-84
2022/11/13 07:50:49;;;;;;;17.55;6.78;;;4.20;99.90;;;;;;5071219;28;20094;-79
2022/11/13 07:53:17;;;;;;;12.77;6.25;;;4.20;99.90;;;;;;5104545;28;20094;-79
2022/11/13 07:55:45;;;;;;;13.65;6.85;;;4.20;99.90;;;;;;5071274;28;20095;-79
2022/11/13 07:58:14;;;;;;;12.68;6.03;;;4.20;99.90;;;;;;5112615;28;20039;-79
2022/11/13 08:00:41;;;;;;;10.85;6.20;;;4.90;99.90;;;;;;5075148;28;20044;-79
2022/11/13 08:03:11;;;;;;;13.93;5.85;;;4.20;99.90;;;;;;5091672;28;20044;-79
2022/11/13 08:05:38;;;;;;;13.13;6.75;;;4.20;99.90;;;;;;5085586;28;20040;-79
2022/11/13 08:08:05;;;;;;;11.95;5.78;;;4.30;99.90;;;;;;5107641;28;20048;-79
2022/11/13 08:10:32;;;;;;;12.57;6.40;;;4.30;99.90;;;;;;5080434;28;20063;-79
2022/11/13 08:13:03;;;;;;;15.38;6.18;;;4.80;99.90;;;;;;5074858;28;20036;-79
2022/11/13 08:15:30;;;;;;;11.77;5.88;;;4.30;99.90;;;;;;5084400;28;20033;-79
2022/11/13 08:17:59;;;;;;;14.57;6.90;;;4.30;99.90;;;;;;5090175;28;20166;-79
2022/11/13 08:20:28;;;;;;;12.52;6.05;;;4.40;99.90;;;;;;5107525;28;20457;-79
2022/11/13 08:22:59;;;;;;;12.68;6.85;;;4.40;99.90;;;;;;5058112;28;20573;-79
2022/11/13 08:25:27;;;;;;;17.35;6.88;;;5.20;99.90;;;;;;5058079;28;20411;-78
2022/11/13 08:27:56;;;;;;;12.23;6.63;;;4.50;99.90;;;;;;5056497;28;20051;-79
2022/11/13 08:30:25;;;;;;;11.93;6.72;;;4.50;99.90;;;;;;5057910;28;20044;-79
2022/11/13 08:32:52;;;;;;;13.13;6.75;;;4.60;99.90;;;;;;5074608;28;20036;-81
2022/11/13 08:35:19;;;;;;;11.63;6.53;;;4.70;99.90;;;;;;5072056;28;20147;-79
2022/11/13 08:37:46;;;;;;;13.18;7.22;;;4.70;99.90;;;;;;5071537;28;20065;-79
2022/11/13 08:40:13;;;;;;;12.75;7.10;;;4.80;99.90;;;;;;5053968;28;20044;-79
2022/11/13 08:42:40;;;;;;;11.10;6.57;;;4.90;99.90;;;;;;5037570;28;20501;-80
2022/11/13 08:45:08;;;;;;;14.20;6.68;;;5.00;99.90;;;;;;5053118;28;20049;-80
2022/11/13 08:47:35;;;;;;;14.07;6.95;;;5.00;99.90;;;;;;5070347;28;20477;-79
2022/11/13 08:50:04;;;;;;;11.82;6.82;;;5.70;99.90;;;;;;5069762;28;20405;-79
2022/11/13 08:52:30;;;;;;;14.05;6.10;;;5.10;99.90;;;;;;5070090;28;20033;-79
2022/11/13 08:54:57;;;;;;;13.70;6.80;;;5.20;99.90;;;;;;5053259;28;20048;-80
2022/11/13 08:57:24;;;;;;;13.95;7.13;;;5.20;99.90;;;;;;5037451;28;20489;-79
2022/11/13 08:59:50;;;;;;;14.38;7.07;;;5.70;99.90;;;;;;5087327;28;20048;-79
2022/11/13 09:02:17;;;;;;;13.70;6.50;;;5.40;99.90;;;;;;5068521;28;20044;-79
2022/11/13 09:04:44;;;;;;;14.68;7.05;;;5.50;99.90;;;;;;5106904;28;20051;-79
2022/11/13 09:07:11;;;;;;;12.95;6.93;;;6.00;99.90;;;;;;5052916;28;20048;-81
2022/11/13 09:09:37;;;;;;;12.15;7.13;;;5.60;99.90;;;;;;5053447;28;20037;-80
2022/11/13 09:12:04;;;;;;;15.05;7.75;;;5.70;99.90;;;;;;5053177;28;20095;-80
2022/11/13 09:14:31;;;;;;;11.20;6.57;;;5.80;99.90;;;;;;5069944;28;20041;-80
2022/11/13 09:16:58;;;;;;;15.27;7.47;;;5.90;99.90;;;;;;5052975;28;20033;-80
2022/11/13 09:19:25;;;;;;;14.68;7.68;;;5.90;99.90;;;;;;5053594;28;20432;-80
2022/11/13 09:21:52;;;;;;;13.02;7.22;;;6.00;99.90;;;;;;5053725;28;20485;-80
2022/11/13 09:24:21;;;;;;;11.13;6.47;;;6.10;99.90;;;;;;5057618;28;20178;-79
2022/11/13 09:26:47;;;;;;;13.05;6.93;;;6.20;99.90;;;;;;5060086;28;20037;-80
2022/11/13 09:29:14;;;;;;;12.68;6.80;;;6.30;99.90;;;;;;5048897;28;20051;-80
2022/11/13 09:31:41;;;;;;;11.93;6.88;;;6.30;99.90;;;;;;5032102;28;20041;-79
2022/11/13 09:34:08;;;;;;;11.90;6.65;;;6.40;99.90;;;;;;5033300;28;20053;-80
2022/11/13 09:36:35;;;;;;;12.20;6.72;;;6.50;99.90;;;;;;5049629;28;20045;-80
2022/11/13 09:39:03;;;;;;;10.93;6.50;;;6.50;99.90;;;;;;5061813;28;20048;-80
2022/11/13 09:41:58;;;;;;;15.63;6.78;;;6.60;99.90;;;;;;5059681;28;20041;-81
2022/11/13 09:44:40;;;;;;;13.48;7.25;;;6.70;99.90;;;;;;5050061;28;20521;-80
2022/11/13 09:47:38;;;;;;;11.20;6.75;;;6.80;99.90;;;;;;5061996;28;20436;-79
2022/11/13 09:50:22;;;;;;;12.00;7.38;;;6.80;99.90;;;;;;5063752;28;20125;-80
2022/11/13 09:52:50;;;;;;;13.85;6.82;;;6.90;99.90;;;;;;5068064;28;20072;-80
2022/11/13 09:55:22;;;;;;;12.75;6.20;;;6.90;99.90;;;;;;5036118;28;20451;-81
2022/11/13 09:58:06;;;;;;;12.82;7.10;;;7.00;99.90;;;;;;5100646;28;20037;-79
2022/11/13 10:00:34;;;;;;;11.15;6.75;;;7.00;99.90;;;;;;5068234;28;20114;-80
2022/11/13 10:03:45;;;;;;;11.23;6.05;;;7.10;99.90;;;;;;5067496;28;20124;-80
2022/11/13 10:06:59;;;;;;;11.23;6.57;;;7.20;99.90;;;;;;5071864;28;20037;-80
2022/11/13 10:09:51;;;;;;;13.23;6.63;;;7.20;99.90;;;;;;5078604;28;20127;-80
2022/11/13 10:12:19;;;;;;;13.02;6.82;;;7.30;99.90;;;;;;5069058;28;20040;-79
2022/11/13 10:14:51;;;;;;;11.02;6.47;;;7.40;99.90;;;;;;5118815;28;20540;-80
2022/11/13 10:17:36;;;;;;;10.63;5.97;;;8.20;99.90;;;;;;5072330;28;20110;-81
2022/11/13 10:20:11;;;;;;;13.20;6.63;;;7.50;99.90;;;;;;5089084;28;20517;-80
2022/11/13 10:22:49;;;;;;;13.98;7.00;;;7.50;99.90;;;;;;5070811;28;20037;-79
2022/11/13 10:25:19;;;;;;;11.73;6.55;;;7.60;99.90;;;;;;5052135;28;20650;-80
2022/11/13 10:27:59;;;;;;;11.52;6.43;;;7.60;99.90;;;;;;5047432;28;20405;-79
2022/11/13 10:30:28;;;;;;;13.70;7.60;;;7.60;99.90;;;;;;5055263;28;20052;-79
2022/11/13 10:33:03;;;;;;;12.50;7.15;;;7.70;99.90;;;;;;5056019;28;20497;-80
2022/11/13 10:35:57;;;;;;;12.70;7.18;;;7.70;99.90;;;;;;5088728;28;20079;-79
2022/11/13 10:38:48;;;;;;;12.00;6.57;;;7.80;99.90;;;;;;5071144;28;20041;-79
2022/11/13 10:41:20;;;;;;;11.18;6.13;;;7.80;99.90;;;;;;5072062;28;20045;-80
2022/11/13 10:43:52;;;;;;;11.68;6.28;;;7.80;99.90;;;;;;5055538;28;20045;-79
2022/11/13 10:46:23;;;;;;;10.35;6.22;;;7.80;99.90;;;;;;5087784;28;20055;-80
2022/11/13 10:48:50;;;;;;;13.48;6.63;;;7.90;99.90;;;;;;5072306;28;20041;-79
2022/11/13 10:51:30;;;;;;;11.10;6.63;;;8.30;99.90;;;;;;5054988;28;20068;-80
2022/11/13 10:53:58;;;;;;;12.20;6.80;;;8.10;99.90;;;;;;5071843;28;20098;-79
2022/11/13 10:56:32;;;;;;;14.07;7.25;;;8.20;99.90;;;;;;5071752;28;20045;-79
2022/11/13 10:59:17;;;;;;;12.73;6.75;;;8.40;99.90;;;;;;5071198;28;20037;-80
2022/11/13 11:01:46;;;;;;;10.88;6.03;;;8.40;99.90;;;;;;5081468;28;20041;-80
2022/11/13 11:04:20;;;;;;;11.90;6.20;;;8.50;99.90;;;;;;5087420;28;20132;-80
2022/11/13 11:06:47;;;;;;;12.97;7.43;;;8.60;99.90;;;;;;5055527;28;20049;-80
2022/11/13 11:09:28;;;;;;;9.88;6.57;;;8.60;99.90;;;;;;5037040;28;20295;-80
2022/11/13 11:12:20;;;;;;;12.80;6.60;;;8.80;99.90;;;;;;5072269;28;20044;-80
2022/11/13 11:14:55;;;;;;;11.85;5.95;;;8.90;99.90;;;;;;5051977;28;20037;-80
2022/11/13 11:17:32;;;;;;;10.85;6.30;;;8.90;99.90;;;;;;5082921;28;20440;-80
2022/11/13 11:20:15;;;;;;;11.20;6.30;;;9.00;99.90;;;;;;5071593;28;20053;-80
2022/11/13 11:22:44;;;;;;;11.05;6.43;;;9.10;99.90;;;;;;5061828;28;20046;-80
2022/11/13 11:25:26;;;;;;;11.32;6.35;;;9.20;99.90;;;;;;5051046;28;20046;-80
2022/11/13 11:28:03;;;;;;;13.32;6.53;;;9.20;99.90;;;;;;5066722;28;20045;-79
2022/11/13 11:30:41;;;;;;;14.00;6.82;;;9.30;99.90;;;;;;5070337;28;20051;-79
2022/11/13 11:33:17;;;;;;;10.68;6.25;;;9.30;99.90;;;;;;5071574;28;20047;-79
2022/11/13 11:35:51;;;;;;;12.30;6.47;;;9.30;99.90;;;;;;5070990;28;20079;-79
2022/11/13 11:38:30;;;;;;;12.98;6.20;;;9.40;99.90;;;;;;5071145;28;20037;-80
2022/11/13 11:41:07;;;;;;;11.45;6.38;;;9.40;99.90;;;;;;5071577;28;20044;-79
2022/11/13 11:43:40;;;;;;;13.25;6.15;;;9.40;99.90;;;;;;5052788;28;20124;-80
2022/11/13 11:46:21;;;;;;;10.32;6.35;;;9.40;99.90;;;;;;5051668;28;20474;-79
2022/11/13 11:48:49;;;;;;;10.50;5.97;;;9.50;99.90;;;;;;5051400;28;20049;-79
2022/11/13 11:51:19;;;;;;;9.60;5.78;;;9.60;99.90;;;;;;5053615;28;20387;-80
2022/11/13 11:54:13;;;;;;;13.15;6.45;;;9.60;99.90;;;;;;5071382;28;20099;-79
2022/11/13 11:56:51;;;;;;;12.40;6.47;;;9.60;99.90;;;;;;5071296;28;20048;-79
2022/11/13 11:59:24;;;;;;;13.25;6.65;;;9.70;99.90;;;;;;5070465;28;20033;-80
2022/11/13 12:02:32;;;;;;;9.70;6.32;;;9.70;99.90;;;;;;5071044;28;20045;-80
2022/11/13 12:05:12;;;;;;;11.77;6.38;;;9.80;99.90;;;;;;5030133;28;20037;-80
2022/11/13 12:08:24;;;;;;;11.15;6.45;;;9.80;99.90;;;;;;5013376;28;20091;-80
2022/11/13 12:11:25;;;;;;;12.23;6.72;;;9.90;99.90;;;;;;5028249;28;20427;-79
2022/11/13 12:14:04;;;;;;;14.85;6.53;;;9.90;99.90;;;;;;5037847;28;20041;-80
2022/11/13 12:17:13;;;;;;;12.00;6.38;;;10.00;99.90;;;;;;5073129;28;20045;-80
2022/11/13 12:19:46;;;;;;;14.82;6.28;;;10.10;99.90;;;;;;5084454;28;20498;-80
2022/11/13 12:22:45;;;;;;;10.98;6.35;;;10.20;99.90;;;;;;5070517;28;20033;-79
2022/11/13 12:25:23;;;;;;;10.63;6.20;;;10.20;99.90;;;;;;5062275;28;20388;-80
2022/11/13 12:28:11;;;;;;;13.80;6.20;;;10.20;99.90;;;;;;5084152;28;20037;-80
2022/11/13 12:30:51;;;;;;;10.88;5.93;;;10.30;99.90;;;;;;5095416;28;20114;-80
2022/11/13 12:33:33;;;;;;;10.32;5.78;;;10.30;99.90;;;;;;5070366;28;20036;-80
2022/11/13 12:36:01;;;;;;;9.93;5.68;;;10.30;99.90;;;;;;5055838;28;20049;-80
2022/11/13 12:38:53;;;;;;;10.70;5.85;;;10.40;99.90;;;;;;5048859;28;20382;-80
2022/11/13 12:41:45;;;;;;;12.30;5.70;;;10.40;99.90;;;;;;5083620;28;20121;-81
2022/11/13 12:44:26;;;;;;;10.82;5.90;;;10.40;99.90;;;;;;5073840;28;20045;-80
2022/11/13 12:46:55;;;;;;;10.55;5.80;;;10.40;99.90;;;;;;5084221;28;20048;-80
2022/11/13 12:49:31;;;;;;;11.50;6.03;;;10.40;99.90;;;;;;5085599;28;20037;-81
2022/11/13 12:52:01;;;;;;;10.85;5.53;;;10.40;99.90;;;;;;5086088;28;20040;-80
2022/11/13 12:54:29;;;;;;;10.30;5.65;;;10.40;99.90;;;;;;5066603;28;20040;-80
2022/11/13 12:57:11;;;;;;;12.40;6.18;;;10.40;99.90;;;;;;5069996;28;20051;-80
2022/11/13 12:59:45;;;;;;;11.35;5.70;;;10.40;99.90;;;;;;5068724;28;20029;-80
2022/11/13 13:02:36;;;;;;;11.82;6.25;;;10.50;99.90;;;;;;5071768;28;20039;-80
2022/11/13 13:05:30;;;;;;;11.40;6.40;;;10.50;99.90;;;;;;5068441;28;20182;-80
2022/11/13 13:08:31;;;;;;;10.50;5.65;;;10.50;99.90;;;;;;5069981;28;20153;-80
2022/11/13 13:11:17;;;;;;;10.82;6.03;;;10.50;99.90;;;;;;5067781;28;20033;-80